• Join FlightAware (Why Join?)
  • Login
  • US Flag 
09:36AM EDT


 

Airport Tracker/Info


-or-


 

Live Flight TrackerFlight Track Log ✈ EGF3308 ✈ 01-May-2013 ✈ KDFW - KSGF

Flight Track Log - Related Links

Times and Time Zones

All times are in EDT time to prevent confusion due to time zone crossing. See the EGF3308 flight status page for this flight to view local times or setup timezone preferences in your user account.

Time Position Orientation Groundspeed Altitude Reporting Facility
EDT Latitude Longitude Course Direction KTS MPH feet Rate Location/Type
10:38PM 32.8833 -97.0333 357° North 194 223 1,300  Level Dallas / Fort Worth TRACON
10:39PM 32.8500 -97.0167 157° South 202 232 2,500 1,920 Climbing Dallas / Fort Worth TRACON
10:40PM 32.8001 -96.8100 10° North  Level FlightAware Approximate
10:40PM 32.8000 -96.9667 140° Southeast 228 262 4,800  Level Dallas / Fort Worth TRACON
10:41PM 32.9049 -96.8000 North  Level FlightAware Approximate
10:41PM 32.8500 -96.9333 29° Northeast 257 296 6,600  Level Dallas / Fort Worth TRACON
10:42PM 33.0104 -96.8000 North  Level FlightAware Approximate
10:42PM 32.9167 -96.9167 12° North 266 306 8,800  Level Dallas / Fort Worth TRACON
10:43PM 33.1158 -96.8031 357° North  Level FlightAware Approximate
10:44PM 33.0681 -96.8903 North 312 359 11,700  Level Fort Worth Center
10:45PM 33.1558 -96.8750 North 313 360 12,800 1,200 Climbing Fort Worth Center
10:46PM 33.2433 -96.8619 North 328 377 14,100 1,440 Climbing Fort Worth Center
10:47PM 33.3478 -96.8439 North 341 392 15,700 1,440 Climbing Fort Worth Center
10:48PM 33.4331 -96.8286 North 348 400 17,000 1,560 Climbing Fort Worth Center
10:49PM 33.5417 -96.8103 North 353 406 18,900 1,740 Climbing Fort Worth Center
10:50PM 33.6314 -96.7847 13° North 348 400 20,500 1,380 Climbing Fort Worth Center
10:51PM 33.7164 -96.7117 36° Northeast 352 405 21,700 1,200 Climbing Fort Worth Center
10:52PM 33.7994 -96.6336 38° Northeast 374 430 23,000 1,260 Climbing Fort Worth Center
10:53PM 33.8803 -96.5628 36° Northeast 370 426 24,300 1,200 Climbing Fort Worth Center
10:54PM 33.9656 -96.4869 36° Northeast 370 426 25,500 1,200 Climbing Fort Worth Center
10:55PM 34.0483 -96.4108 37° Northeast 364 419 26,800 1,200 Climbing Fort Worth Center
10:56PM 34.1311 -96.3344 37° Northeast 364 419 28,000 1,200 Climbing Fort Worth Center
10:57PM 34.2139 -96.2581 37° Northeast 364 419 29,200 1,200 Climbing Fort Worth Center
10:58PM 34.2967 -96.1842 36° Northeast 364 419 30,400 900 Climbing Fort Worth Center
10:59PM 34.3814 -96.1075 37° Northeast 364 419 31,000 300 Climbing Fort Worth Center
11:00PM 34.4725 -96.0256 37° Northeast 378 435 31,000  Level Fort Worth Center
11:01PM 34.5675 -95.9383 37° Northeast 405 466 31,000  Level Fort Worth Center
11:02PM 34.6622 -95.8508 37° Northeast 418 481 31,000  Level Fort Worth Center
11:03PM 34.7592 -95.7656 36° Northeast 430 495 31,000  Level Fort Worth Center
11:04PM 34.8539 -95.6753 38° Northeast 430 495 31,000  Level Fort Worth Center
11:05PM 34.9550 -95.5922 34° Northeast 430 495 31,000  Level Fort Worth Center
11:06PM 35.0497 -95.5014 38° Northeast 435 501 31,000  Level Fort Worth Center
11:07PM 35.1442 -95.4128 37° Northeast 430 495 31,000 -360 Level Fort Worth Center
11:08PM 35.2553 -95.3128 36° Northeast 450 518 30,200 -1,080 Descending Memphis Center
11:09PM 35.3506 -95.2242 37° Northeast 444 511 28,700 -1,500 Descending Memphis Center
11:10PM 35.4481 -95.1306 38° Northeast 444 511 27,200 -1,320 Descending Memphis Center
11:11PM 35.5453 -95.0392 37° Northeast 439 505 26,100 -1,080 Descending Memphis Center
11:12PM 35.6425 -94.9450 38° Northeast 439 505 25,100 -1,020 Descending Memphis Center
11:13PM 35.7397 -94.8533 37° Northeast 439 505 24,100 -1,020 Descending Memphis Center
11:14PM 35.8369 -94.7611 38° Northeast 439 505 23,100 -1,020 Descending Memphis Center
11:15PM 35.9297 -94.6739 37° Northeast 434 499 22,100 -1,020 Descending Memphis Center
11:16PM 36.0203 -94.5864 38° Northeast 423 487 21,100 -1,020 Descending Memphis Center
11:17PM 36.1086 -94.5008 38° Northeast 412 474 20,100 -1,020 Descending Memphis Center
11:18PM 36.1969 -94.4153 38° Northeast 407 468 19,100 -1,020 Descending Memphis Center
11:20PM 36.3544 -94.2633 38° Northeast 395 455 17,400 -1,020 Descending Kansas City Center
11:21PM 36.4392 -94.1817 38° Northeast 388 447 16,400 -720 Descending Kansas City Center
11:22PM 36.5200 -94.1014 39° Northeast 379 436 16,000 -240 Descending Kansas City Center
11:23PM 36.6031 -94.0217 38° Northeast 376 433 16,000  Level Kansas City Center
11:24PM 36.6861 -93.9408 38° Northeast 378 435 16,000 -480 Level Kansas City Center
11:25PM 36.7700 -93.8589 38° Northeast 381 438 15,100 -1,560 Descending Kansas City Center
11:26PM 36.8517 -93.7819 37° Northeast 374 430 12,900 -1,980 Descending Kansas City Center
11:27PM 36.9353 -93.7414 21° North 352 405 11,100 -1,620 Descending Kansas City Center
11:28PM 37.0297 -93.6933 22° Northeast 313 360 9,700 -1,500 Descending Kansas City Center
11:29PM 37.1011 -93.6578 22° Northeast 285 328 8,100 -1,680 Descending Kansas City Center
11:30PM 37.1703 -93.6236 21° North 272 313 6,300 -1,620 Descending Kansas City Center
11:31PM 37.2369 -93.5914 21° North 260 299 4,900 -1,380 Descending Kansas City Center